createdAt,value
2018-04-24T00:00:20.638Z,101165.07
2018-04-24T00:02:53.488Z,101161.55
2018-04-24T00:05:26.583Z,101159.66
2018-04-24T00:07:58.698Z,101159.36
2018-04-24T00:10:32.815Z,101159.66
2018-04-24T00:13:07.088Z,101161.11
2018-04-24T00:15:40.834Z,101163.81
2018-04-24T00:18:14.302Z,101162.35
2018-04-24T00:20:47.833Z,101170.16
2018-04-24T00:23:21.799Z,101167.44
2018-04-24T00:25:55.248Z,101165.24
2018-04-24T00:28:28.835Z,101167.39
2018-04-24T00:31:03.414Z,101162.20
2018-04-24T00:33:38.482Z,101168.30
2018-04-24T00:36:11.710Z,101171.72
2018-04-24T00:38:45.564Z,101172.03
2018-04-24T00:41:17.843Z,101177.81
2018-04-24T00:43:51.266Z,101170.03
2018-04-24T00:46:24.697Z,101172.00
2018-04-24T00:48:57.582Z,101176.23
2018-04-24T00:51:29.837Z,101172.67
2018-04-24T00:54:03.687Z,101172.26
2018-04-24T00:56:36.571Z,101173.48
2018-04-24T00:59:08.698Z,101169.50
2018-04-24T01:01:42.556Z,101167.92
2018-04-24T01:04:15.620Z,101173.80
2018-04-24T01:06:49.260Z,101172.54
2018-04-24T01:09:23.240Z,101175.74
2018-04-24T01:13:14.614Z,101173.83
2018-04-24T01:15:49.119Z,101177.33
2018-04-24T01:18:22.522Z,101174.18
2018-04-24T01:20:55.799Z,101180.09
2018-04-24T01:23:29.578Z,101182.36
2018-04-24T01:26:01.580Z,101190.50
2018-04-24T01:28:33.528Z,101188.63
2018-04-24T01:31:07.254Z,101183.59
2018-04-24T01:33:40.602Z,101187.25
2018-04-24T01:36:12.723Z,101189.59
2018-04-24T01:38:46.759Z,101189.53
2018-04-24T01:41:20.273Z,101197.44
2018-04-24T01:43:53.590Z,101197.69
2018-04-24T01:46:25.892Z,101196.84
2018-04-24T01:48:59.232Z,101199.89
2018-04-24T01:51:32.589Z,101200.22
2018-04-24T01:54:04.495Z,101203.38
2018-04-24T01:56:37.585Z,101208.37
2018-04-24T02:02:01.875Z,101200.63
2018-04-24T02:04:35.707Z,101203.73
2018-04-24T02:07:09.947Z,101216.91
2018-04-24T02:09:43.809Z,101218.09
2018-04-24T02:12:17.245Z,101215.97
2018-04-24T02:14:50.504Z,101218.52
2018-04-24T02:17:23.566Z,101221.86
2018-04-24T02:19:55.607Z,101222.62
2018-04-24T02:22:27.950Z,101222.39
2018-04-24T02:25:01.825Z,101225.61
2018-04-24T02:27:35.821Z,101224.66
2018-04-24T02:30:08.984Z,101228.23
2018-04-24T02:32:42.589Z,101234.47
2018-04-24T02:35:15.824Z,101237.48
2018-04-24T02:37:49.691Z,101236.24
2018-04-24T02:40:23.644Z,101240.87
2018-04-24T02:42:57.582Z,101246.41
2018-04-24T02:45:29.761Z,101248.70
2018-04-24T02:48:03.558Z,101251.05
2018-04-24T02:50:36.588Z,101251.87
2018-04-24T02:53:08.487Z,101258.28
2018-04-24T02:55:41.659Z,101261.19
2018-04-24T02:58:14.527Z,101265.68
2018-04-24T03:00:47.357Z,101267.06
2018-04-24T03:03:21.255Z,101267.44
2018-04-24T03:05:55.639Z,101265.45
2018-04-24T03:08:32.264Z,101273.91
2018-04-24T03:11:05.823Z,101276.63
2018-04-24T03:13:39.679Z,101276.63
2018-04-24T03:16:11.785Z,101277.81
2018-04-24T03:18:46.402Z,101288.33
2018-04-24T03:21:19.565Z,101285.34
2018-04-24T03:23:51.574Z,101295.25
2018-04-24T03:26:23.540Z,101297.53
2018-04-24T03:28:56.582Z,101307.29
2018-04-24T03:31:28.485Z,101313.98
2018-04-24T03:34:01.248Z,101314.19
2018-04-24T03:36:34.235Z,101313.19
2018-04-24T03:39:08.276Z,101319.48
2018-04-24T03:41:42.498Z,101327.64
2018-04-24T03:44:15.915Z,101328.82
2018-04-24T03:46:49.248Z,101332.49
2018-04-24T03:49:21.621Z,101335.19
2018-04-24T03:51:53.816Z,101336.20
2018-04-24T03:54:26.585Z,101347.08
2018-04-24T03:56:59.009Z,101346.27
2018-04-24T03:59:32.505Z,101347.70
2018-04-24T04:04:37.766Z,101351.48
2018-04-24T04:07:12.003Z,101361.71
2018-04-24T04:09:45.267Z,101369.23
2018-04-24T04:12:18.758Z,101368.23
2018-04-24T04:14:52.649Z,101373.94
2018-04-24T04:17:36.500Z,101375.35
2018-04-24T04:20:20.911Z,101376.09
2018-04-24T04:23:05.951Z,101390.63
2018-04-24T04:25:39.627Z,101398.66
2018-04-24T04:28:11.523Z,101400.24
2018-04-24T04:30:44.906Z,101405.35
2018-04-24T04:33:18.738Z,101404.09
2018-04-24T04:37:59.594Z,101419.36
2018-04-24T04:40:32.513Z,101422.47
2018-04-24T04:43:05.590Z,101429.40
2018-04-24T04:45:37.757Z,101434.92
2018-04-24T04:48:11.833Z,101433.72
2018-04-24T04:50:45.506Z,101436.89
2018-04-24T04:53:18.863Z,101447.33
2018-04-24T04:55:52.095Z,101451.89
2018-04-24T04:58:27.228Z,101446.61
2018-04-24T05:01:00.583Z,101460.95
2018-04-24T05:03:32.780Z,101459.17
2018-04-24T05:06:06.242Z,101463.06
2018-04-24T05:08:39.864Z,101465.47
2018-04-24T05:11:13.578Z,101466.08
2018-04-24T05:13:46.857Z,101459.86
2018-04-24T05:16:20.568Z,101465.10
2018-04-24T05:18:53.842Z,101466.06
2018-04-24T05:21:27.703Z,101463.69
2018-04-24T05:24:00.565Z,101467.45
2018-04-24T05:26:32.789Z,101465.08
2018-04-24T05:29:06.483Z,101465.84
2018-04-24T05:31:39.564Z,101469.90
2018-04-24T05:34:11.548Z,101468.97
2018-04-24T05:36:43.700Z,101469.92
2018-04-24T05:39:17.490Z,101475.05
2018-04-24T05:41:50.277Z,101476.88
2018-04-24T05:44:23.743Z,101475.67
2018-04-24T05:46:57.502Z,101476.65
2018-04-24T05:49:30.946Z,101479.94
2018-04-24T05:52:05.270Z,101482.64
2018-04-24T05:54:38.591Z,101493.37
2018-04-24T05:57:10.817Z,101485.65
2018-04-24T05:59:44.717Z,101486.05
2018-04-24T06:02:18.078Z,101494.94
2018-04-24T06:04:51.593Z,101489.11
2018-04-24T06:07:24.070Z,101496.50
2018-04-24T06:10:34.276Z,101494.73
2018-04-24T06:13:08.523Z,101493.40
2018-04-24T06:15:41.587Z,101494.90
2018-04-24T06:18:15.221Z,101496.91
2018-04-24T06:23:37.745Z,101492.30
2018-04-24T06:26:11.597Z,101494.18
2018-04-24T06:28:43.683Z,101492.27
2018-04-24T06:31:17.897Z,101490.84
2018-04-24T06:33:51.579Z,101494.45
2018-04-24T06:36:23.871Z,101495.15
2018-04-24T06:38:57.577Z,101491.77
2018-04-24T06:41:29.846Z,101489.90
2018-04-24T06:44:06.257Z,101483.61
2018-04-24T06:46:40.223Z,101485.01
2018-04-24T06:49:14.576Z,101488.55
2018-04-24T06:51:46.704Z,101479.50
2018-04-24T06:54:20.487Z,101482.02
2018-04-24T06:56:53.546Z,101484.67
2018-04-24T06:59:27.250Z,101486.03
2018-04-24T07:02:00.753Z,101489.14
2018-04-24T07:04:34.503Z,101490.13
2018-04-24T07:07:08.263Z,101484.50
2018-04-24T07:09:42.492Z,101488.94
2018-04-24T07:12:15.606Z,101485.45
2018-04-24T07:14:48.106Z,101492.13
2018-04-24T07:17:21.601Z,101494.73
2018-04-24T07:19:55.754Z,101495.03
2018-04-24T07:22:29.949Z,101494.05
2018-04-24T07:25:02.663Z,101494.39
2018-04-24T07:27:36.941Z,101491.83
2018-04-24T07:30:10.973Z,101489.38
2018-04-24T07:32:44.793Z,101493.38
2018-04-24T07:35:18.620Z,101496.94
2018-04-24T07:37:51.534Z,101495.89
2018-04-24T07:40:24.645Z,101498.72
2018-04-24T07:43:00.554Z,101505.34
2018-04-24T07:45:32.546Z,101495.96
2018-04-24T07:48:04.730Z,101494.00
2018-04-24T07:50:38.608Z,101496.23
2018-04-24T07:53:10.860Z,101493.52
2018-04-24T07:55:44.137Z,101497.23
2018-04-24T07:58:17.594Z,101496.11
2018-04-24T08:00:49.822Z,101491.03
2018-04-24T08:03:23.247Z,101496.58
2018-04-24T08:05:56.905Z,101491.62
2018-04-24T08:08:30.564Z,101492.62
2018-04-24T08:11:04.907Z,101497.42
2018-04-24T08:13:38.258Z,101492.47
2018-04-24T08:16:11.912Z,101486.98
2018-04-24T08:18:45.705Z,101486.98
2018-04-24T08:21:18.597Z,101485.44
2018-04-24T08:23:52.737Z,101486.28
2018-04-24T08:26:26.600Z,101487.14
2018-04-24T08:28:58.880Z,101486.08
2018-04-24T08:31:32.591Z,101482.45
2018-04-24T08:34:06.240Z,101475.58
2018-04-24T08:36:39.933Z,101472.82
2018-04-24T08:39:14.596Z,101467.74
2018-04-24T08:41:51.808Z,101463.75
2018-04-24T08:44:25.615Z,101461.27
2018-04-24T08:46:59.850Z,101459.91
2018-04-24T08:49:33.586Z,101463.84
2018-04-24T08:52:05.496Z,101458.70
2018-04-24T08:54:38.833Z,101464.17
2018-04-24T08:57:12.256Z,101466.92
2018-04-24T08:59:45.551Z,101467.26
2018-04-24T09:02:17.706Z,101460.55
2018-04-24T09:04:53.265Z,101461.24
2018-04-24T09:07:26.601Z,101458.80
2018-04-24T09:10:00.265Z,101449.80
2018-04-24T09:12:33.685Z,101443.63
2018-04-24T09:15:07.580Z,101436.97
2018-04-24T09:18:53.953Z,101435.85
2018-04-24T09:21:27.593Z,101430.31
2018-04-24T09:23:59.696Z,101431.38
2018-04-24T09:26:33.754Z,101426.42
2018-04-24T09:29:07.754Z,101422.91
2018-04-24T09:31:44.347Z,101425.24
2018-04-24T09:34:18.538Z,101425.15
2018-04-24T09:36:50.755Z,101421.79
2018-04-24T09:39:24.972Z,101420.83
2018-04-24T09:41:59.702Z,101419.28
2018-04-24T09:44:31.757Z,101412.99
2018-04-24T09:47:03.741Z,101410.13
2018-04-24T09:49:37.641Z,101406.03
2018-04-24T09:52:10.044Z,101403.45
2018-04-24T09:54:43.633Z,101397.06
2018-04-24T09:57:17.257Z,101401.14
2018-04-24T09:59:51.508Z,101400.30
2018-04-24T10:02:25.271Z,101398.33
2018-04-24T10:04:58.633Z,101403.73
2018-04-24T10:07:32.571Z,101401.40
2018-04-24T10:10:04.731Z,101399.89
2018-04-24T10:12:38.629Z,101396.72
2018-04-24T10:15:12.514Z,101394.55
2018-04-24T10:20:33.831Z,101388.31
2018-04-24T10:23:07.629Z,101392.94
2018-04-24T10:25:41.281Z,101386.84
2018-04-24T10:28:14.593Z,101386.92
2018-04-24T10:30:46.601Z,101389.37
2018-04-24T10:33:18.605Z,101385.80
2018-04-24T10:35:52.271Z,101383.23
2018-04-24T10:38:26.590Z,101381.17
2018-04-24T10:40:58.591Z,101384.88
2018-04-24T10:43:32.405Z,101387.75
2018-04-24T10:46:06.460Z,101390.23
2018-04-24T10:48:40.255Z,101387.82
2018-04-24T10:51:13.580Z,101383.69
2018-04-24T10:53:45.761Z,101387.05
2018-04-24T10:56:19.569Z,101388.98
2018-04-24T10:58:51.568Z,101382.80
2018-04-24T11:01:23.939Z,101388.52
2018-04-24T11:03:55.833Z,101388.46
2018-04-24T11:06:29.543Z,101384.31
2018-04-24T11:09:01.668Z,101388.22
2018-04-24T11:11:33.617Z,101388.72
2018-04-24T11:14:05.653Z,101389.83
2018-04-24T11:16:36.546Z,101380.38
2018-04-24T11:19:08.536Z,101375.75
2018-04-24T11:21:40.646Z,101375.73
2018-04-24T11:24:12.512Z,101365.98
2018-04-24T11:26:44.517Z,101375.93
2018-04-24T11:29:16.605Z,101371.81
2018-04-24T11:31:47.368Z,101370.11
2018-04-24T11:34:19.313Z,101372.09
2018-04-24T11:36:51.285Z,101369.30
2018-04-24T11:39:23.298Z,101366.45
2018-04-24T11:41:54.397Z,101368.11
2018-04-24T11:44:25.233Z,101362.94
2018-04-24T11:46:57.539Z,101367.20
2018-04-24T11:49:28.369Z,101363.00
2018-04-24T11:52:00.553Z,101361.98
2018-04-24T11:54:32.546Z,101363.75
2018-04-24T11:57:04.637Z,101362.63
2018-04-24T11:59:35.562Z,101360.59
2018-04-24T12:02:06.554Z,101353.16
2018-04-24T12:04:38.549Z,101360.64
2018-04-24T12:07:10.671Z,101366.53
2018-04-24T12:09:42.648Z,101367.52
2018-04-24T12:12:13.389Z,101366.02
2018-04-24T12:14:44.290Z,101364.84
2018-04-24T12:17:16.730Z,101362.15
2018-04-24T12:19:48.653Z,101360.91
2018-04-24T12:22:20.553Z,101363.19
2018-04-24T12:24:52.661Z,101364.91
2018-04-24T12:27:24.525Z,101364.48
2018-04-24T12:29:55.387Z,101363.10
2018-04-24T12:32:27.552Z,101362.44
2018-04-24T12:34:59.548Z,101360.36
2018-04-24T12:37:30.434Z,101365.20
2018-04-24T12:40:01.418Z,101368.75
2018-04-24T12:42:33.556Z,101368.80
2018-04-24T12:45:05.683Z,101373.96
2018-04-24T12:47:37.557Z,101369.33
2018-04-24T12:50:08.396Z,101365.54
2018-04-24T12:52:39.125Z,101362.34
2018-04-24T12:55:11.508Z,101365.61
2018-04-24T12:57:43.511Z,101361.81
2018-04-24T13:00:15.645Z,101362.91
2018-04-24T13:02:46.497Z,101365.51
2018-04-24T13:05:18.544Z,101361.44
2018-04-24T13:07:50.654Z,101367.27
2018-04-24T13:10:22.646Z,101370.67
2018-04-24T13:12:55.542Z,101366.03
2018-04-24T13:15:26.530Z,101367.83
2018-04-24T13:17:58.541Z,101363.05
2018-04-24T13:20:30.657Z,101372.14
2018-04-24T13:23:02.635Z,101363.90
2018-04-24T13:25:33.444Z,101369.33
2018-04-24T13:28:05.567Z,101368.11
2018-04-24T13:30:37.671Z,101367.16
2018-04-24T13:33:10.547Z,101369.71
2018-04-24T13:35:42.546Z,101380.13
2018-04-24T13:38:13.383Z,101382.35
2018-04-24T13:40:44.271Z,101383.91
2018-04-24T13:43:16.594Z,101382.53
2018-04-24T13:45:47.350Z,101387.17
2018-04-24T13:48:19.289Z,101383.86
2018-04-24T13:50:51.303Z,101394.47
2018-04-24T13:53:23.542Z,101392.72
2018-04-24T13:55:55.313Z,101397.83
2018-04-24T13:58:27.558Z,101397.54
2018-04-24T14:00:58.400Z,101406.52
2018-04-24T14:03:30.539Z,101408.03
2018-04-24T14:06:02.538Z,101410.45
2018-04-24T14:08:34.563Z,101407.45
2018-04-24T14:11:05.415Z,101415.80
2018-04-24T14:13:36.346Z,101417.87
2018-04-24T14:16:08.537Z,101416.75
2018-04-24T14:18:40.779Z,101411.69
2018-04-24T14:21:12.623Z,101406.30
2018-04-24T14:23:43.510Z,101415.55
2018-04-24T14:26:15.510Z,101420.13
2018-04-24T14:28:47.511Z,101428.70
2018-04-24T14:31:19.530Z,101425.95
2018-04-24T14:33:51.529Z,101434.70
2018-04-24T14:36:23.495Z,101430.53
2018-04-24T14:38:55.628Z,101431.33
2018-04-24T14:41:26.511Z,101436.33
2018-04-24T14:43:58.662Z,101434.24
2018-04-24T14:46:30.513Z,101442.24
2018-04-24T14:49:02.374Z,101449.77
2018-04-24T14:51:34.498Z,101443.57
2018-04-24T14:54:06.287Z,101444.47
2018-04-24T14:56:38.262Z,101448.44
2018-04-24T14:59:10.268Z,101450.01
2018-04-24T15:01:42.265Z,101452.12
2018-04-24T15:04:14.536Z,101454.83
2018-04-24T15:06:46.289Z,101459.12
2018-04-24T15:09:18.261Z,101454.64
2018-04-24T15:11:50.290Z,101461.40
2018-04-24T15:14:22.487Z,101456.28
2018-04-24T15:16:54.277Z,101460.97
2018-04-24T15:19:26.504Z,101451.09
2018-04-24T15:22:00.705Z,101456.02
2018-04-24T15:24:32.597Z,101460.80
2018-04-24T15:27:03.497Z,101454.88
2018-04-24T15:29:35.490Z,101453.08
2018-04-24T15:32:07.296Z,101452.17
2018-04-24T15:34:39.287Z,101456.02
2018-04-24T15:37:11.262Z,101454.94
2018-04-24T15:39:43.244Z,101459.69
2018-04-24T15:42:15.267Z,101457.46
2018-04-24T15:44:47.264Z,101455.53
2018-04-24T15:47:19.606Z,101460.54
2018-04-24T15:49:50.455Z,101469.67
2018-04-24T15:52:22.629Z,101466.61
2018-04-24T15:54:53.462Z,101468.12
2018-04-24T15:57:25.618Z,101468.56
2018-04-24T15:59:56.378Z,101471.03
2018-04-24T16:02:28.275Z,101475.30
2018-04-24T16:05:00.286Z,101477.10
2018-04-24T16:07:32.260Z,101486.99
2018-04-24T16:10:04.312Z,101486.86
2018-04-24T16:12:36.278Z,101491.08
2018-04-24T16:15:08.258Z,101486.52
2018-04-24T16:17:40.283Z,101485.86
2018-04-24T16:20:12.269Z,101489.66
2018-04-24T16:22:44.515Z,101484.12
2018-04-24T16:25:16.406Z,101495.63
2018-04-24T16:27:48.500Z,101498.43
2018-04-24T16:30:20.350Z,101493.55
2018-04-24T16:32:52.283Z,101496.30
2018-04-24T16:35:24.546Z,101496.26
2018-04-24T16:37:56.847Z,101493.70
2018-04-24T16:40:28.954Z,101500.04
2018-04-24T16:43:01.288Z,101503.32
2018-04-24T16:45:33.623Z,101495.73
2018-04-24T16:48:04.500Z,101501.27
2018-04-24T16:50:36.294Z,101499.59
2018-04-24T16:53:08.506Z,101499.58
2018-04-24T16:55:40.483Z,101499.28
2018-04-24T16:58:12.273Z,101499.72
2018-04-24T17:00:44.678Z,101496.84
2018-04-24T17:03:17.477Z,101497.05
2018-04-24T17:05:49.479Z,101487.61
2018-04-24T17:08:21.300Z,101488.41
2018-04-24T17:10:53.538Z,101487.59
2018-04-24T17:13:25.435Z,101489.47
2018-04-24T17:15:57.254Z,101495.92
2018-04-24T17:18:29.521Z,101508.19
2018-04-24T17:21:01.255Z,101502.34
2018-04-24T17:23:33.532Z,101504.05
2018-04-24T17:26:53.558Z,101508.08
2018-04-24T17:29:27.233Z,101500.68
2018-04-24T17:32:00.472Z,101502.89
2018-04-24T17:34:33.646Z,101494.19
2018-04-24T17:37:07.295Z,101502.28
2018-04-24T17:39:41.795Z,101494.70
2018-04-24T17:42:15.814Z,101503.89
2018-04-24T17:44:50.005Z,101502.14
2018-04-24T17:47:23.818Z,101501.11
2018-04-24T17:49:57.339Z,101500.30
2018-04-24T17:52:30.825Z,101501.28
2018-04-24T17:55:04.860Z,101506.02
2018-04-24T17:57:38.219Z,101512.06
2018-04-24T18:00:11.560Z,101503.59
2018-04-24T18:02:43.743Z,101496.36
2018-04-24T18:05:17.239Z,101507.34
2018-04-24T18:07:50.504Z,101511.78
2018-04-24T18:10:23.509Z,101501.92
2018-04-24T18:12:56.644Z,101504.93
2018-04-24T18:15:30.112Z,101503.13
2018-04-24T18:18:03.484Z,101503.48
2018-04-24T18:20:36.613Z,101499.50
2018-04-24T18:23:08.881Z,101508.68
2018-04-24T18:25:42.763Z,101508.97
2018-04-24T18:28:16.243Z,101509.77
2018-04-24T18:30:49.284Z,101498.59
2018-04-24T18:35:43.571Z,101501.37
2018-04-24T18:38:16.567Z,101502.23
2018-04-24T18:40:50.038Z,101500.55
2018-04-24T18:43:23.974Z,101503.05
2018-04-24T18:45:59.278Z,101501.72
2018-04-24T18:50:03.774Z,101496.67
2018-04-24T18:52:37.497Z,101490.98
2018-04-24T18:55:10.504Z,101491.98
2018-04-24T18:57:43.587Z,101494.70
2018-04-24T19:00:16.490Z,101486.41
2018-04-24T19:02:49.955Z,101489.06
2018-04-24T19:08:05.621Z,101482.58
2018-04-24T19:10:38.781Z,101480.44
2018-04-24T19:13:12.294Z,101484.22
2018-04-24T19:15:45.616Z,101486.98
2018-04-24T19:18:17.711Z,101477.06
2018-04-24T19:20:51.267Z,101472.83
2018-04-24T19:23:24.497Z,101473.34
2018-04-24T19:25:57.273Z,101462.97
2018-04-24T19:28:30.626Z,101462.77
2018-04-24T19:31:08.639Z,101462.30
2018-04-24T19:33:42.596Z,101452.03
2018-04-24T19:36:16.613Z,101460.17
2018-04-24T19:38:53.357Z,101462.52
2018-04-24T19:41:32.618Z,101462.34
2018-04-24T19:44:04.785Z,101450.07
2018-04-24T19:46:38.538Z,101453.65
2018-04-24T19:49:17.296Z,101455.41
2018-04-24T19:51:51.281Z,101446.49
2018-04-24T19:54:25.647Z,101441.28
2018-04-24T19:56:59.277Z,101435.39
2018-04-24T20:00:31.985Z,101441.94
2018-04-24T20:03:05.624Z,101433.30
2018-04-24T20:05:39.792Z,101428.53
2018-04-24T20:08:13.272Z,101429.20
2018-04-24T20:10:45.544Z,101430.22
2018-04-24T20:13:17.690Z,101416.00
2018-04-24T20:15:50.946Z,101414.14
2018-04-24T20:18:26.153Z,101421.95
2018-04-24T20:20:59.610Z,101418.73
2018-04-24T20:23:32.937Z,101422.37
2018-04-24T20:26:06.513Z,101414.73
2018-04-24T20:28:39.752Z,101417.44
2018-04-24T20:31:13.525Z,101422.32
2018-04-24T20:33:46.620Z,101413.52
2018-04-24T20:36:18.539Z,101420.15
2018-04-24T20:38:52.251Z,101414.88
2018-04-24T20:41:25.577Z,101420.34
2018-04-24T20:43:57.518Z,101419.30
2018-04-24T20:46:31.493Z,101415.83
2018-04-24T20:49:04.873Z,101420.34
2018-04-24T20:51:37.864Z,101412.42
2018-04-24T20:54:10.488Z,101411.58
2018-04-24T20:56:43.561Z,101402.98
2018-04-24T20:59:17.106Z,101417.22
2018-04-24T21:01:50.602Z,101420.22
2018-04-24T21:04:22.564Z,101412.22
2018-04-24T21:06:56.263Z,101413.13
2018-04-24T21:09:29.793Z,101419.29
2018-04-24T21:12:03.790Z,101417.63
2018-04-24T21:14:37.504Z,101406.83
2018-04-24T21:17:10.653Z,101406.83
2018-04-24T21:19:44.584Z,101410.34
2018-04-24T21:22:16.546Z,101412.66
2018-04-24T21:24:48.875Z,101409.50
2018-04-24T21:27:22.490Z,101409.73
2018-04-24T21:29:55.543Z,101407.65
2018-04-24T21:32:28.103Z,101410.97
2018-04-24T21:35:01.607Z,101404.03
2018-04-24T21:37:33.864Z,101409.56
2018-04-24T21:40:07.248Z,101401.25
2018-04-24T21:42:40.585Z,101401.48
2018-04-24T21:45:13.337Z,101396.09
2018-04-24T21:47:46.523Z,101395.57
2018-04-24T21:50:20.630Z,101397.23
2018-04-24T21:52:54.278Z,101401.73
2018-04-24T21:55:27.541Z,101398.19
2018-04-24T21:57:59.492Z,101388.09
2018-04-24T22:00:33.597Z,101389.75
2018-04-24T22:03:05.786Z,101387.13
2018-04-24T22:05:39.530Z,101384.80
2018-04-24T22:08:12.694Z,101374.77
2018-04-24T22:10:46.499Z,101377.73
2018-04-24T22:13:19.761Z,101369.80
2018-04-24T22:15:53.581Z,101365.27
2018-04-24T22:18:26.475Z,101372.91
2018-04-24T22:20:59.599Z,101366.42
2018-04-24T22:23:34.699Z,101366.54
2018-04-24T22:26:08.733Z,101367.00
2018-04-24T22:28:42.708Z,101366.11
2018-04-24T22:31:16.580Z,101367.07
2018-04-24T22:33:48.666Z,101361.58
2018-04-24T22:36:21.933Z,101361.10
2018-04-24T22:38:55.243Z,101353.88
2018-04-24T22:41:28.499Z,101355.63
2018-04-24T22:44:01.817Z,101353.52
2018-04-24T22:46:35.835Z,101359.53
2018-04-24T22:49:09.505Z,101359.63
2018-04-24T22:51:43.693Z,101354.88
2018-04-24T22:54:17.327Z,101346.78
2018-04-24T22:56:50.502Z,101351.59
2018-04-24T22:59:23.557Z,101351.37
2018-04-24T23:01:57.861Z,101357.62
2018-04-24T23:04:31.845Z,101354.64
2018-04-24T23:07:05.888Z,101359.66
2018-04-24T23:09:39.584Z,101347.16
2018-04-24T23:12:16.729Z,101348.36
2018-04-24T23:15:01.382Z,101352.39
2018-04-24T23:17:45.706Z,101348.38
2018-04-24T23:20:21.502Z,101348.79
2018-04-24T23:22:55.359Z,101342.42
2018-04-24T23:25:29.261Z,101344.12
2018-04-24T23:28:02.532Z,101341.66
2018-04-24T23:30:35.730Z,101347.89
2018-04-24T23:33:10.245Z,101350.47
2018-04-24T23:35:45.085Z,101346.14
2018-04-24T23:38:18.620Z,101338.82
2018-04-24T23:40:50.519Z,101342.73
2018-04-24T23:43:24.743Z,101346.77
2018-04-24T23:45:58.246Z,101352.23
2018-04-24T23:48:32.262Z,101343.30
2018-04-24T23:51:05.977Z,101344.92
2018-04-24T23:53:39.772Z,101345.89
2018-04-24T23:56:13.240Z,101345.70
2018-04-24T23:58:46.490Z,101347.47
